Point Hope, AK

07:23 AM AKST del 26 Gennaio 2015 (GMT -0900)
Red Dog Mine | Change Station
CLOSE
Current Station
Aeroporto
Location: Red Dog Mine,
Altitudine: 968 ft
Stazioni meteo nelle vicinanze

Alt. 968 ft 68.03 °N, 162.90 °W | Updated 1 day ago

Clear
-17 °F
Sembra -17 °F
N
3
Vento Variabile Vento da SSO
Gusts mph

Oggi
Massima -- | Minima -- °F
--% Possibilità di precip.
Ieri
Massima -- | Minima -- °F
Precip. -- in
11:54 AM 4:38 PM
Luna crescente, 44% visible
Pressione 29.99 in
Visibilità 7.0 miglia
Nuvole Sereno
Punto di rugiada -17 °F
Umidità 94%
Piovosità 0.00 in
Spessore del manto nevoso Non disponibile.
Raggi UV 0 fuori da 12
Polline Non disponibile.
Qualità dell'aria Non disponibile.
Flu Activity Non disponibile.
SPECI PADG 251610Z 00000KT 7SM SKC M26/M30 A2999

More Conditions Fewer Conditions

Pressione 29.99 in
Visibilità 7.0 miglia
Nuvole Sereno
Punto di rugiada -17 °F
Umidità 94%
Piovosità 0.00 in
Spessore del manto nevoso Non disponibile.
Raggi UV 0 fuori da 12
Polline Non disponibile.
Qualità dell'aria Non disponibile.
Flu Activity Non disponibile.
SPECI PADG 251610Z 00000KT 7SM SKC M26/M30 A2999

More Conditions Fewer Conditions

10-Day Weather Forecast

Almanac

Astronomia

Jan. 26, 2015 Alba Tramonto
Ora attuale
Crepuscolo civile
Crepuscolo nautico
Crepuscolo astronomico
Luna
Estensione della luce visibile
Lunghezza del giorno
Tomorrow will be .
, % of the Moon is Illuminated

Gli estremi di oggi

State Highs State Lows

Community

WunderPhotos

Upload Photos

1,790,272 foto caricate!

WunderBlogs® & News

Nearby

Qualità dell'aria

  Qualità dell'aria Indice AQ Inquinante
Not available.

Profondità neve

Stazione Profondità Altitudine

Attività sismica

Città  Distanza Mag. Data & Ora
Minimo Magnitudo Mostrato è 2.5.

Temperature delle acque costiere

Località Temperatura

Stazioni meteo nelle vicinanze